createdAt,value
2023-07-25T00:01:32.129Z,15.30
2023-07-25T00:04:00.893Z,15.47
2023-07-25T00:06:29.342Z,13.27
2023-07-25T00:08:57.324Z,13.27
2023-07-25T00:11:25.263Z,14.73
2023-07-25T00:13:53.779Z,14.10
2023-07-25T00:16:22.331Z,14.67
2023-07-25T00:18:52.276Z,13.37
2023-07-25T00:21:20.674Z,13.93
2023-07-25T00:23:48.562Z,12.80
2023-07-25T00:26:17.000Z,12.90
2023-07-25T00:28:45.273Z,13.70
2023-07-25T00:31:13.582Z,12.63
2023-07-25T00:33:41.512Z,12.23
2023-07-25T00:36:10.221Z,12.33
2023-07-25T00:38:38.920Z,11.67
2023-07-25T00:41:07.159Z,12.17
2023-07-25T00:43:35.657Z,12.33
2023-07-25T00:46:03.678Z,12.07
2023-07-25T00:48:32.418Z,11.73
2023-07-25T00:51:01.256Z,11.37
2023-07-25T00:53:29.836Z,11.77
2023-07-25T00:55:58.053Z,11.60
2023-07-25T00:58:26.471Z,11.20
2023-07-25T01:00:55.039Z,11.47
2023-07-25T01:03:23.689Z,10.70
2023-07-25T01:05:52.594Z,10.97
2023-07-25T01:08:21.077Z,12.30
2023-07-25T01:10:49.689Z,9.80
2023-07-25T01:13:18.281Z,9.80
2023-07-25T01:15:47.463Z,10.03
2023-07-25T01:33:00.038Z,9.93
2023-07-25T01:35:28.449Z,9.60
2023-07-25T01:37:56.925Z,9.60
2023-07-25T01:40:26.942Z,11.00
2023-07-25T01:42:54.909Z,10.50
2023-07-25T01:45:23.661Z,10.13
2023-07-25T01:47:52.089Z,11.10
2023-07-25T01:50:20.076Z,10.83
2023-07-25T01:52:48.718Z,10.23
2023-07-25T01:55:17.334Z,11.03
2023-07-25T01:57:46.930Z,10.43
2023-07-25T02:00:15.628Z,10.53
2023-07-25T02:02:44.401Z,10.47
2023-07-25T02:05:12.980Z,11.10
2023-07-25T02:07:41.584Z,10.90
2023-07-25T02:10:10.494Z,11.40
2023-07-25T02:12:39.180Z,11.10
2023-07-25T02:15:08.032Z,10.80
2023-07-25T02:17:36.472Z,10.90
2023-07-25T02:20:05.212Z,11.63
2023-07-25T02:22:33.133Z,10.30
2023-07-25T02:25:01.643Z,11.27
2023-07-25T02:27:29.677Z,11.37
2023-07-25T02:29:58.120Z,10.03
2023-07-25T02:32:26.682Z,10.37
2023-07-25T02:34:56.317Z,11.50
2023-07-25T02:37:26.575Z,11.97
2023-07-25T02:39:54.583Z,10.13
2023-07-25T02:42:23.109Z,9.50
2023-07-25T02:44:51.380Z,11.40
2023-07-25T02:47:19.980Z,10.50
2023-07-25T02:49:48.547Z,10.73
2023-07-25T02:52:17.132Z,11.37
2023-07-25T02:54:45.189Z,11.70
2023-07-25T02:57:13.094Z,11.27
2023-07-25T02:59:40.963Z,9.97
2023-07-25T03:02:10.695Z,10.93
2023-07-25T03:04:38.708Z,10.03
2023-07-25T03:07:07.313Z,10.80
2023-07-25T03:09:35.763Z,10.67
2023-07-25T03:12:04.273Z,10.93
2023-07-25T03:14:32.152Z,9.97
2023-07-25T03:17:00.749Z,11.00
2023-07-25T03:19:29.182Z,11.27
2023-07-25T03:21:57.074Z,12.17
2023-07-25T03:24:25.056Z,11.73
2023-07-25T03:26:53.800Z,11.97
2023-07-25T03:29:22.286Z,11.90
2023-07-25T03:31:50.669Z,10.23
2023-07-25T03:34:19.257Z,10.70
2023-07-25T03:36:47.230Z,10.60
2023-07-25T03:39:15.806Z,11.47
2023-07-25T03:41:44.377Z,11.47
2023-07-25T03:44:13.278Z,10.70
2023-07-25T03:46:41.214Z,11.80
2023-07-25T03:49:09.500Z,11.10
2023-07-25T03:51:38.738Z,11.17
2023-07-25T03:54:07.918Z,11.80
2023-07-25T03:56:35.843Z,11.50
2023-07-25T03:59:04.686Z,12.27
2023-07-25T04:01:33.355Z,11.90
2023-07-25T04:04:02.231Z,12.73
2023-07-25T04:06:30.225Z,12.20
2023-07-25T04:08:58.724Z,11.67
2023-07-25T04:11:27.314Z,12.40
2023-07-25T04:13:55.768Z,13.13
2023-07-25T04:16:24.244Z,12.83
2023-07-25T04:18:52.156Z,13.03
2023-07-25T04:21:20.094Z,13.17
2023-07-25T04:23:48.090Z,12.50
2023-07-25T04:26:16.437Z,12.53
2023-07-25T04:28:44.362Z,13.33
2023-07-25T04:31:12.778Z,13.00
2023-07-25T04:33:41.068Z,14.00
2023-07-25T04:36:09.487Z,11.83
2023-07-25T04:38:38.244Z,13.47
2023-07-25T04:41:06.736Z,13.03
2023-07-25T04:43:35.310Z,13.97
2023-07-25T04:46:03.887Z,14.23
2023-07-25T04:48:32.895Z,13.47
2023-07-25T04:51:01.301Z,14.37
2023-07-25T04:53:29.325Z,13.83
2023-07-25T04:55:57.791Z,14.60
2023-07-25T04:58:26.280Z,14.20
2023-07-25T05:00:54.823Z,14.07
2023-07-25T05:03:23.446Z,13.37
2023-07-25T05:05:53.016Z,13.70
2023-07-25T05:08:21.220Z,14.03
2023-07-25T05:10:51.493Z,13.07
2023-07-25T05:13:20.350Z,13.80
2023-07-25T05:18:16.439Z,14.07
2023-07-25T05:20:44.377Z,14.23
2023-07-25T05:23:12.853Z,13.87
2023-07-25T05:25:41.652Z,14.90
2023-07-25T05:28:10.309Z,14.83
2023-07-25T05:33:06.023Z,14.70
2023-07-25T05:35:34.552Z,15.27
2023-07-25T05:38:04.489Z,14.77
2023-07-25T05:40:33.045Z,14.37
2023-07-25T05:43:01.068Z,13.77
2023-07-25T05:45:28.941Z,14.73
2023-07-25T05:47:57.426Z,15.03
2023-07-25T05:50:25.960Z,14.13
2023-07-25T05:52:54.641Z,14.13
2023-07-25T05:57:50.275Z,13.43
2023-07-25T06:00:20.572Z,12.83
2023-07-25T06:02:48.579Z,13.63
2023-07-25T06:07:44.123Z,12.90
2023-07-25T06:10:12.325Z,13.20
2023-07-25T06:12:41.361Z,14.73
2023-07-25T06:15:09.459Z,13.07
2023-07-25T06:17:37.969Z,13.10
2023-07-25T06:20:06.875Z,12.60
2023-07-25T06:22:36.622Z,12.00
2023-07-25T06:25:05.223Z,12.10
2023-07-25T06:30:00.918Z,11.78
2023-07-25T06:32:29.594Z,11.60
2023-07-25T06:34:58.419Z,11.63
2023-07-25T06:37:26.897Z,11.50
2023-07-25T06:39:55.489Z,11.40
2023-07-25T06:44:51.183Z,11.53
2023-07-25T06:47:19.707Z,11.33
2023-07-25T06:49:47.977Z,11.20
2023-07-25T06:52:16.988Z,11.33
2023-07-25T06:54:46.570Z,12.27
2023-07-25T06:57:15.166Z,12.93
2023-07-25T06:59:43.539Z,11.57
2023-07-25T07:02:12.236Z,11.33
2023-07-25T07:07:08.248Z,11.08
2023-07-25T07:12:50.245Z,11.03
2023-07-25T07:15:19.273Z,12.43
2023-07-25T07:17:47.878Z,11.20
2023-07-25T07:25:11.392Z,10.72
2023-07-25T07:27:39.469Z,12.07
2023-07-25T07:30:08.132Z,11.90
2023-07-25T07:35:03.157Z,10.78
2023-07-25T07:50:37.790Z,10.63
2023-07-25T07:53:06.431Z,9.80
2023-07-25T07:55:35.747Z,10.73
2023-07-25T07:58:04.747Z,10.57
2023-07-25T08:00:33.525Z,11.17
2023-07-25T08:03:02.157Z,11.53
2023-07-25T08:05:30.887Z,10.23
2023-07-25T08:07:58.856Z,10.83
2023-07-25T08:10:27.566Z,11.47
2023-07-25T08:15:23.513Z,11.22
2023-07-25T08:17:51.819Z,11.90
2023-07-25T08:20:20.486Z,11.60
2023-07-25T08:22:49.952Z,10.67
2023-07-25T08:25:18.540Z,10.90
2023-07-25T08:27:46.884Z,10.57
2023-07-25T08:30:14.900Z,10.40
2023-07-25T08:32:43.496Z,9.87
2023-07-25T08:35:12.186Z,11.20
2023-07-25T08:37:41.073Z,11.50
2023-07-25T08:40:10.168Z,11.03
2023-07-25T08:42:39.627Z,10.97
2023-07-25T08:45:08.787Z,9.47
2023-07-25T08:47:38.224Z,9.73
2023-07-25T08:50:08.576Z,9.87
2023-07-25T08:52:37.900Z,9.47
2023-07-25T08:55:06.702Z,10.23
2023-07-25T08:57:34.890Z,9.93
2023-07-25T09:00:03.695Z,9.53
2023-07-25T09:02:32.595Z,10.30
2023-07-25T09:05:01.948Z,11.07
2023-07-25T09:07:30.721Z,10.73
2023-07-25T09:09:59.820Z,11.20
2023-07-25T09:12:31.684Z,10.17
2023-07-25T09:14:59.704Z,10.07
2023-07-25T09:17:27.770Z,11.63
2023-07-25T09:19:56.644Z,10.50
2023-07-25T09:22:32.567Z,10.53
2023-07-25T09:25:01.897Z,10.23
2023-07-25T09:27:30.537Z,10.93
2023-07-25T09:29:59.279Z,10.03
2023-07-25T09:32:29.337Z,9.47
2023-07-25T09:56:31.362Z,10.07
2023-07-25T09:59:07.215Z,10.13
2023-07-25T10:01:30.920Z,10.40
2023-07-25T10:04:00.758Z,11.30
2023-07-25T10:06:29.693Z,10.80
2023-07-25T10:08:58.930Z,10.93
2023-07-25T10:11:27.629Z,10.47
2023-07-25T10:13:56.287Z,10.53
2023-07-25T10:16:25.494Z,10.70
2023-07-25T10:18:59.230Z,10.53
2023-07-25T10:21:29.145Z,11.63
2023-07-25T10:24:04.535Z,9.73
2023-07-25T10:26:33.254Z,10.90
2023-07-25T10:29:04.607Z,10.93
2023-07-25T10:31:36.147Z,10.00
2023-07-25T10:34:05.898Z,11.20
2023-07-25T10:36:34.456Z,11.10
2023-07-25T10:39:08.234Z,9.87
2023-07-25T10:41:36.235Z,9.77
2023-07-25T10:44:05.003Z,10.47
2023-07-25T10:46:36.522Z,10.77
2023-07-25T10:49:06.250Z,10.47
2023-07-25T10:51:54.001Z,9.87
2023-07-25T10:54:24.118Z,9.30
2023-07-25T10:57:11.135Z,9.47
2023-07-25T10:59:58.153Z,9.07
2023-07-25T11:02:30.954Z,9.07
2023-07-25T11:05:16.001Z,8.80
2023-07-25T11:07:49.289Z,8.03
2023-07-25T11:10:28.426Z,9.10
2023-07-25T11:12:58.151Z,8.50
2023-07-25T11:17:58.141Z,9.07
2023-07-25T11:20:26.758Z,8.27
2023-07-25T11:25:24.133Z,8.58
2023-07-25T11:27:53.109Z,8.57
2023-07-25T11:30:21.963Z,8.00
2023-07-25T11:32:51.316Z,8.13
2023-07-25T11:35:22.565Z,8.63
2023-07-25T11:37:52.797Z,8.80
2023-07-25T11:40:22.514Z,8.33
2023-07-25T11:42:52.247Z,7.73
2023-07-25T11:45:22.122Z,8.60
2023-07-25T11:47:52.058Z,7.77
2023-07-25T11:50:27.637Z,7.70
2023-07-25T11:52:52.055Z,7.50
2023-07-25T11:55:21.173Z,7.43
2023-07-25T11:57:50.176Z,8.00
2023-07-25T12:00:18.441Z,7.53
2023-07-25T12:05:29.784Z,7.60
2023-07-25T12:08:04.939Z,7.60
2023-07-25T12:10:34.486Z,6.63
2023-07-25T12:13:08.603Z,6.77
2023-07-25T12:15:47.942Z,6.87
2023-07-25T12:18:33.535Z,6.03
2023-07-25T12:21:02.654Z,6.57
2023-07-25T12:23:32.954Z,6.83
2023-07-25T12:26:03.269Z,6.20
2023-07-25T12:28:42.314Z,5.70
2023-07-25T12:31:11.249Z,7.57
2023-07-25T12:33:39.992Z,5.97
2023-07-25T12:36:08.867Z,6.40
2023-07-25T12:38:37.621Z,5.30
2023-07-25T12:41:06.762Z,5.13
2023-07-25T12:43:35.036Z,6.30
2023-07-25T12:48:30.536Z,5.70
2023-07-25T12:53:26.196Z,5.67
2023-07-25T12:55:54.974Z,6.30
2023-07-25T12:58:24.520Z,5.30
2023-07-25T13:00:53.773Z,5.00
2023-07-25T13:03:29.126Z,5.13
2023-07-25T13:05:58.124Z,4.83
2023-07-25T13:08:26.600Z,5.07
2023-07-25T13:10:55.611Z,4.97
2023-07-25T13:13:23.949Z,4.37
2023-07-25T13:15:52.805Z,3.47
2023-07-25T13:18:22.175Z,4.40
2023-07-25T13:20:50.761Z,4.10
2023-07-25T13:23:19.238Z,4.57
2023-07-25T13:25:48.022Z,4.03
2023-07-25T13:28:17.602Z,4.27
2023-07-25T13:30:46.521Z,4.03
2023-07-25T13:33:15.149Z,4.10
2023-07-25T13:35:44.197Z,4.20
2023-07-25T13:38:12.995Z,4.23
2023-07-25T13:40:41.794Z,4.47
2023-07-25T13:43:10.578Z,4.10
2023-07-25T13:45:51.827Z,3.93
2023-07-25T13:48:09.083Z,4.27
2023-07-25T13:50:50.480Z,4.57
2023-07-25T13:53:08.053Z,4.70
2023-07-25T13:55:36.747Z,4.63
2023-07-25T14:00:35.672Z,4.77
2023-07-25T14:03:04.548Z,4.63
2023-07-25T14:05:33.147Z,4.40
2023-07-25T14:08:01.938Z,5.27
2023-07-25T14:10:30.714Z,4.97
2023-07-25T14:12:59.300Z,4.87
2023-07-25T14:15:27.309Z,4.70
2023-07-25T14:17:55.823Z,4.40
2023-07-25T14:20:24.551Z,3.60
2023-07-25T14:22:52.734Z,4.80
2023-07-25T14:27:50.495Z,4.50
2023-07-25T14:30:19.087Z,3.80
2023-07-25T14:32:48.738Z,4.37
2023-07-25T14:35:17.585Z,4.30
2023-07-25T14:37:56.073Z,4.07
2023-07-25T14:40:15.483Z,3.63
2023-07-25T14:42:43.956Z,4.43
2023-07-25T14:45:12.312Z,4.30
2023-07-25T14:47:41.299Z,4.83
2023-07-25T14:50:10.433Z,3.93
2023-07-25T14:52:39.216Z,3.90
2023-07-25T14:55:08.551Z,4.20
2023-07-25T14:57:37.375Z,4.67
2023-07-25T15:00:06.906Z,4.43
2023-07-25T15:02:35.576Z,4.23
2023-07-25T15:05:04.286Z,3.70
2023-07-25T15:07:32.871Z,4.37
2023-07-25T15:10:01.427Z,4.80
2023-07-25T15:12:30.719Z,3.90
2023-07-25T15:14:59.535Z,4.10
2023-07-25T15:17:28.541Z,4.53
2023-07-25T15:20:01.424Z,4.03
2023-07-25T15:22:30.561Z,4.77
2023-07-25T15:24:59.715Z,4.03
2023-07-25T15:27:28.940Z,4.10
2023-07-25T15:29:57.805Z,4.63
2023-07-25T15:32:25.842Z,3.63
2023-07-25T15:34:54.554Z,3.90
2023-07-25T15:37:22.933Z,4.33
2023-07-25T15:42:18.265Z,4.37
2023-07-25T15:44:47.074Z,4.17
2023-07-25T15:47:15.864Z,4.50
2023-07-25T15:49:44.585Z,4.27
2023-07-25T15:52:13.425Z,4.53
2023-07-25T15:54:41.463Z,5.20
2023-07-25T15:57:10.323Z,5.20
2023-07-25T15:59:39.286Z,4.50
2023-07-25T16:02:08.086Z,4.00
2023-07-25T16:04:37.270Z,4.67
2023-07-25T16:07:06.096Z,3.97
2023-07-25T16:09:35.470Z,4.53
2023-07-25T16:12:04.141Z,5.03
2023-07-25T16:14:32.836Z,4.60
2023-07-25T16:17:01.977Z,4.23
2023-07-25T16:19:30.510Z,4.83
2023-07-25T16:24:25.853Z,4.85
2023-07-25T16:26:54.399Z,4.00
2023-07-25T16:29:23.846Z,4.60
2023-07-25T16:31:52.782Z,4.30
2023-07-25T16:34:21.094Z,4.30
2023-07-25T16:36:49.652Z,4.60
2023-07-25T16:39:17.747Z,4.67
2023-07-25T16:41:46.328Z,4.80
2023-07-25T16:44:15.435Z,4.67
2023-07-25T16:46:44.050Z,4.93
2023-07-25T16:49:13.078Z,4.63
2023-07-25T16:51:42.377Z,4.27
2023-07-25T16:54:13.149Z,4.43
2023-07-25T16:56:42.407Z,5.10
2023-07-25T16:59:10.925Z,5.20
2023-07-25T17:04:06.763Z,3.98
2023-07-25T17:09:04.347Z,6.35
2023-07-25T17:11:33.365Z,4.57
2023-07-25T17:14:03.072Z,5.63
2023-07-25T17:16:32.210Z,5.23
2023-07-25T17:19:08.863Z,4.10
2023-07-25T17:21:40.406Z,4.73
2023-07-25T17:24:08.246Z,4.77
2023-07-25T17:26:37.345Z,5.57
2023-07-25T17:29:06.528Z,4.90
2023-07-25T17:31:35.753Z,4.97
2023-07-25T17:34:04.367Z,4.60
2023-07-25T17:36:33.097Z,5.17
2023-07-25T17:39:01.584Z,5.07
2023-07-25T17:41:31.478Z,5.03
2023-07-25T17:44:00.288Z,4.93
2023-07-25T17:46:28.214Z,5.60
2023-07-25T17:48:58.583Z,4.80
2023-07-25T17:51:27.391Z,4.93
2023-07-25T17:53:56.570Z,5.33
2023-07-25T17:56:26.097Z,5.27
2023-07-25T17:58:55.275Z,5.20
2023-07-25T18:01:27.167Z,5.43
2023-07-25T18:03:55.959Z,5.97
2023-07-25T18:06:24.180Z,5.70
2023-07-25T18:08:52.842Z,6.73
2023-07-25T18:11:21.017Z,6.20
2023-07-25T18:13:49.871Z,6.87
2023-07-25T18:16:19.117Z,6.03
2023-07-25T18:18:48.043Z,6.13
2023-07-25T18:21:16.428Z,6.73
2023-07-25T18:23:45.336Z,5.47
2023-07-25T18:26:14.834Z,6.37
2023-07-25T18:28:44.619Z,7.47
2023-07-25T18:31:13.833Z,10.03
2023-07-25T18:33:43.337Z,6.73
2023-07-25T18:36:13.335Z,6.33
2023-07-25T18:38:42.369Z,7.53
2023-07-25T18:41:11.680Z,8.27
2023-07-25T18:43:40.492Z,7.77
2023-07-25T18:46:09.388Z,11.17
2023-07-25T18:48:38.358Z,7.47
2023-07-25T18:51:07.415Z,6.63
2023-07-25T18:53:36.248Z,6.07
2023-07-25T18:56:04.482Z,5.77
2023-07-25T18:58:33.387Z,5.30
2023-07-25T19:01:03.018Z,5.53
2023-07-25T19:03:32.181Z,6.17
2023-07-25T19:06:01.387Z,5.83
2023-07-25T19:08:30.065Z,6.37
2023-07-25T19:10:59.302Z,6.10
2023-07-25T19:13:28.478Z,7.63
2023-07-25T19:15:57.521Z,7.13
2023-07-25T19:18:26.569Z,6.80
2023-07-25T19:20:56.071Z,6.77
2023-07-25T19:23:27.597Z,6.60
2023-07-25T19:25:59.991Z,7.10
2023-07-25T19:28:29.298Z,6.90
2023-07-25T19:30:58.239Z,7.57
2023-07-25T19:33:29.445Z,7.33
2023-07-25T19:35:58.747Z,7.50
2023-07-25T19:38:28.137Z,7.00
2023-07-25T19:40:56.899Z,8.17
2023-07-25T19:43:26.036Z,8.73
2023-07-25T19:45:59.099Z,8.07
2023-07-25T19:48:27.515Z,7.53
2023-07-25T19:50:56.622Z,7.00
2023-07-25T19:53:25.667Z,7.33
2023-07-25T19:55:55.490Z,7.03
2023-07-25T19:58:23.467Z,7.50
2023-07-25T20:00:52.010Z,7.93
2023-07-25T20:03:20.922Z,7.50
2023-07-25T20:05:50.750Z,7.60
2023-07-25T20:08:19.618Z,6.60
2023-07-25T20:10:48.577Z,6.13
2023-07-25T20:15:44.082Z,7.22
2023-07-25T20:18:13.034Z,6.83
2023-07-25T20:20:41.896Z,6.73
2023-07-25T20:23:11.260Z,6.00
2023-07-25T20:25:40.222Z,7.00
2023-07-25T20:28:08.418Z,7.83
2023-07-25T20:30:37.334Z,6.60
2023-07-25T20:33:06.444Z,7.60
2023-07-25T20:35:35.343Z,7.80
2023-07-25T20:38:04.369Z,7.73
2023-07-25T20:40:32.617Z,6.87
2023-07-25T20:43:01.836Z,7.60
2023-07-25T20:45:32.280Z,7.30
2023-07-25T20:48:01.312Z,7.43
2023-07-25T20:50:32.171Z,7.23
2023-07-25T20:53:00.909Z,8.13
2023-07-25T20:55:31.104Z,7.83
2023-07-25T20:58:00.652Z,7.13
2023-07-25T21:00:30.371Z,6.80
2023-07-25T21:02:58.783Z,8.27
2023-07-25T21:05:28.435Z,6.93
2023-07-25T21:07:57.204Z,7.37
2023-07-25T21:12:53.280Z,7.85
2023-07-25T21:15:22.058Z,7.23
2023-07-25T21:18:02.615Z,8.13
2023-07-25T21:20:21.181Z,7.03
2023-07-25T21:30:11.089Z,7.55
2023-07-25T21:32:39.242Z,7.67
2023-07-25T21:35:08.129Z,6.73
2023-07-25T21:37:36.807Z,7.23
2023-07-25T21:40:05.580Z,6.80
2023-07-25T21:47:27.197Z,6.20
2023-07-25T21:49:55.869Z,7.60
2023-07-25T21:54:51.219Z,7.50
2023-07-25T21:59:47.196Z,6.35
2023-07-25T22:02:22.392Z,7.03
2023-07-25T22:04:50.356Z,7.60
2023-07-25T22:07:18.358Z,7.40
2023-07-25T22:09:49.594Z,6.60
2023-07-25T22:12:18.197Z,6.13
2023-07-25T22:14:46.672Z,6.70
2023-07-25T22:17:14.807Z,6.37
2023-07-25T22:19:44.133Z,6.80
2023-07-25T22:22:13.100Z,6.90
2023-07-25T22:24:41.819Z,7.27
2023-07-25T22:29:36.548Z,6.75
2023-07-25T22:32:06.381Z,7.00
2023-07-25T22:34:34.998Z,6.47
2023-07-25T22:37:02.998Z,6.00
2023-07-25T22:39:31.152Z,7.07
2023-07-25T22:41:59.769Z,6.27
2023-07-25T22:44:28.293Z,6.93
2023-07-25T22:46:57.439Z,6.63
2023-07-25T22:49:26.090Z,7.43
2023-07-25T22:54:20.826Z,6.60
2023-07-25T22:56:49.403Z,6.33
2023-07-25T22:59:17.760Z,7.33
2023-07-25T23:01:46.461Z,7.30
2023-07-25T23:04:15.330Z,6.97
2023-07-25T23:06:43.831Z,6.73
2023-07-25T23:09:12.415Z,7.90
2023-07-25T23:11:40.897Z,6.93
2023-07-25T23:14:09.474Z,6.50
2023-07-25T23:21:32.443Z,7.35
2023-07-25T23:24:01.250Z,7.63
2023-07-25T23:26:29.481Z,6.80
2023-07-25T23:28:58.309Z,8.33
2023-07-25T23:31:26.460Z,7.07
2023-07-25T23:33:55.205Z,6.67
2023-07-25T23:38:50.997Z,6.53
2023-07-25T23:41:19.054Z,7.30
2023-07-25T23:43:47.104Z,6.83
2023-07-25T23:46:15.762Z,7.67
2023-07-25T23:53:38.287Z,6.72
2023-07-25T23:56:06.413Z,7.37
2023-07-25T23:58:34.885Z,6.77
